GOLBI EGPJ-EGPJ

Flight info

Callsign GOLBI
Flight time 1h 1m
Altitude 3000
Route VFR
Aircraft PA28/L-S/L

Departure

Time 2026-04-18 23:22
Airport Fife Airport (EGPJ)

Arrival

Time 2026-04-19 00:23
Airport Fife Airport (EGPJ)
Time Latitude Longitude Altitude Speed Heading
2026-04-18 23:13 56.18472 -3.21820 407 ft 0 kts 118°
2026-04-18 23:14 56.18471 -3.21817 407 ft 0 kts 118°
2026-04-18 23:19 56.18463 -3.21773 402 ft 7 kts 96°
2026-04-18 23:19 56.18468 -3.21698 400 ft 6 kts 66°
2026-04-18 23:20 56.18475 -3.21675 400 ft 1 kts 59°
2026-04-18 23:20 56.18478 -3.21669 400 ft 0 kts 59°
2026-04-18 23:20 56.18478 -3.21668 400 ft 1 kts 58°
2026-04-18 23:20 56.18487 -3.21637 399 ft 4 kts 85°
2026-04-18 23:21 56.18452 -3.21626 398 ft 7 kts 232°
2026-04-18 23:21 56.18375 -3.21882 401 ft 50 kts 241°
2026-04-18 23:21 56.18127 -3.22633 485 ft 80 kts 239°
2026-04-18 23:21 56.17804 -3.23478 738 ft 81 kts 237°
2026-04-18 23:22 56.17474 -3.24289 1022 ft 80 kts 237°
2026-04-18 23:22 56.17156 -3.25112 1249 ft 82 kts 242°
2026-04-18 23:22 56.16872 -3.25951 1471 ft 79 kts 248°
2026-04-18 23:23 56.16638 -3.27837 1760 ft 81 kts 281°
2026-04-18 23:23 56.16709 -3.28843 1929 ft 81 kts 279°
2026-04-18 23:23 56.16812 -3.29832 2147 ft 81 kts 284°
2026-04-18 23:23 56.16899 -3.30833 2310 ft 80 kts 281°
2026-04-18 23:24 56.16906 -3.31842 2364 ft 82 kts 272°
2026-04-18 23:24 56.16858 -3.32868 2470 ft 85 kts 269°
2026-04-18 23:24 56.16829 -3.33585 2524 ft 90 kts 271°
2026-04-18 23:24 56.16877 -3.34671 2701 ft 85 kts 278°
2026-04-18 23:25 56.16894 -3.35751 2702 ft 87 kts 275°
2026-04-18 23:25 56.16888 -3.36808 2729 ft 84 kts 275°
2026-04-18 23:25 56.16838 -3.37861 2704 ft 86 kts 263°
2026-04-18 23:25 56.16668 -3.38864 2747 ft 86 kts 257°
2026-04-18 23:26 56.16270 -3.39705 2605 ft 98 kts 219°
2026-04-18 23:26 56.15556 -3.39798 2398 ft 112 kts 171°
2026-04-18 23:26 56.14809 -3.39572 2173 ft 106 kts 184°
2026-04-18 23:26 56.14101 -3.39514 2015 ft 96 kts 187°
2026-04-18 23:27 56.13463 -3.39475 1941 ft 89 kts 185°
2026-04-18 23:27 56.12847 -3.39341 1873 ft 87 kts 179°
2026-04-18 23:27 56.12224 -3.39195 1849 ft 93 kts 181°
2026-04-18 23:27 56.11581 -3.39158 1869 ft 92 kts 190°
2026-04-18 23:28 56.10935 -3.39251 1902 ft 93 kts 193°
2026-04-18 23:28 56.10293 -3.39345 1913 ft 94 kts 192°
2026-04-18 23:28 56.09629 -3.39407 1900 ft 96 kts 189°
2026-04-18 23:28 56.08960 -3.39397 1890 ft 97 kts 188°
2026-04-18 23:29 56.08297 -3.39429 1908 ft 95 kts 190°
2026-04-18 23:29 56.07632 -3.39448 1939 ft 96 kts 189°
2026-04-18 23:29 56.06964 -3.39491 1968 ft 98 kts 189°
2026-04-18 23:29 56.06281 -3.39508 1902 ft 97 kts 188°
2026-04-18 23:30 56.05595 -3.39498 1882 ft 101 kts 187°
2026-04-18 23:30 56.04898 -3.39476 1845 ft 101 kts 188°
2026-04-18 23:30 56.04202 -3.39506 1812 ft 98 kts 187°
2026-04-18 23:30 56.03513 -3.39476 1796 ft 98 kts 188°
2026-04-18 23:31 56.02833 -3.39551 1765 ft 97 kts 194°
2026-04-18 23:31 56.02155 -3.39683 1723 ft 99 kts 201°
2026-04-18 23:31 56.01514 -3.39993 1767 ft 95 kts 202°
2026-04-18 23:31 56.00854 -3.40219 1791 ft 95 kts 199°
2026-04-18 23:32 56.00195 -3.40374 1741 ft 95 kts 193°
2026-04-18 23:32 55.99532 -3.40347 1687 ft 96 kts 182°
2026-04-18 23:32 55.98883 -3.40083 1691 ft 97 kts 160°
2026-04-18 23:32 55.98320 -3.39351 1740 ft 103 kts 146°
2026-04-18 23:33 55.97750 -3.38554 1729 ft 105 kts 146°
2026-04-18 23:33 55.97192 -3.37735 1732 ft 103 kts 145°
2026-04-18 23:33 55.96643 -3.36914 1712 ft 103 kts 143°
2026-04-18 23:33 55.96101 -3.36069 1708 ft 103 kts 145°
2026-04-18 23:34 55.95547 -3.35270 1694 ft 103 kts 146°
2026-04-18 23:34 55.94989 -3.34512 1692 ft 101 kts 147°
2026-04-18 23:34 55.94405 -3.33795 1644 ft 102 kts 151°
2026-04-18 23:34 55.93838 -3.33056 1663 ft 101 kts 147°
2026-04-18 23:35 55.93383 -3.32117 1687 ft 101 kts 117°
2026-04-18 23:35 55.93318 -3.30894 1691 ft 100 kts 84°
2026-04-18 23:35 55.93378 -3.29658 1728 ft 101 kts 79°
2026-04-18 23:35 55.93471 -3.28419 1809 ft 100 kts 77°
2026-04-18 23:36 55.93595 -3.27180 1872 ft 102 kts 75°
2026-04-18 23:36 55.93733 -3.25962 2019 ft 99 kts 73°
2026-04-18 23:36 55.93883 -3.24763 2147 ft 99 kts 71°
2026-04-18 23:36 55.94013 -3.23572 2213 ft 100 kts 72°
2026-04-18 23:37 55.94147 -3.22377 2322 ft 98 kts 71°
2026-04-18 23:37 55.94312 -3.21153 2352 ft 104 kts 71°
2026-04-18 23:37 55.94494 -3.19880 2358 ft 110 kts 68°
2026-04-18 23:37 55.94704 -3.18618 2349 ft 104 kts 68°
2026-04-18 23:38 55.94884 -3.17393 2223 ft 105 kts 70°
2026-04-18 23:38 55.94925 -3.16159 2234 ft 96 kts 108°
2026-04-18 23:38 55.94510 -3.15357 2260 ft 88 kts 158°
2026-04-18 23:38 55.94001 -3.15412 2230 ft 69 kts 219°
2026-04-18 23:39 55.93617 -3.16055 2059 ft 81 kts 240°
2026-04-18 23:39 55.93513 -3.16972 2028 ft 76 kts 293°
2026-04-18 23:39 55.93977 -3.17296 2029 ft 83 kts 355°
2026-04-18 23:39 55.94564 -3.17200 1998 ft 88 kts 13°
2026-04-18 23:40 55.94922 -3.16327 1958 ft 102 kts 93°
2026-04-18 23:40 55.94522 -3.15330 1963 ft 102 kts 158°
2026-04-18 23:40 55.93891 -3.15381 1949 ft 86 kts 218°
2026-04-18 23:40 55.93593 -3.16169 1961 ft 74 kts 272°
2026-04-18 23:41 55.93909 -3.16831 1938 ft 79 kts 338°
2026-04-18 23:41 55.94433 -3.16438 1906 ft 98 kts 53°
2026-04-18 23:41 55.94379 -3.15277 1921 ft 104 kts 131°
2026-04-18 23:41 55.93772 -3.14893 1906 ft 90 kts 199°
2026-04-18 23:42 55.93411 -3.15593 1913 ft 76 kts 265°
2026-04-18 23:42 55.93555 -3.16500 1886 ft 76 kts 287°
2026-04-18 23:42 55.93549 -3.17420 1909 ft 74 kts 270°
2026-04-18 23:42 55.93469 -3.18323 1948 ft 75 kts 256°
2026-04-18 23:43 55.93100 -3.19019 1963 ft 88 kts 214°
2026-04-18 23:43 55.92467 -3.18928 1965 ft 99 kts 153°
2026-04-18 23:43 55.91852 -3.18845 1952 ft 84 kts 214°
2026-04-18 23:43 55.91562 -3.19634 1935 ft 75 kts 268°
2026-04-18 23:44 55.91650 -3.20529 1925 ft 74 kts 283°
2026-04-18 23:44 55.91806 -3.21365 1987 ft 71 kts 291°
2026-04-18 23:44 55.91970 -3.22208 2028 ft 72 kts 286°
2026-04-18 23:44 55.92069 -3.23079 2028 ft 73 kts 277°
2026-04-18 23:45 55.91946 -3.23971 2079 ft 74 kts 257°
2026-04-18 23:45 55.91802 -3.24849 2099 ft 75 kts 269°
2026-04-18 23:45 55.91847 -3.25801 2037 ft 76 kts 286°
2026-04-18 23:45 55.91974 -3.26666 1970 ft 72 kts 280°
2026-04-18 23:46 55.92055 -3.27572 1833 ft 75 kts 283°
2026-04-18 23:46 55.92178 -3.28468 1703 ft 75 kts 285°
2026-04-18 23:46 55.92337 -3.29376 1526 ft 76 kts 291°
2026-04-18 23:46 55.92442 -3.30299 1357 ft 79 kts 269°
2026-04-18 23:47 55.92433 -3.31248 1252 ft 77 kts 271°
2026-04-18 23:47 55.92633 -3.32085 1161 ft 77 kts 307°
2026-04-18 23:47 55.92918 -3.32911 1069 ft 77 kts 295°
2026-04-18 23:47 55.93157 -3.33745 985 ft 76 kts 291°
2026-04-18 23:48 55.93363 -3.34605 878 ft 74 kts 285°
2026-04-18 23:48 55.93750 -3.35123 778 ft 83 kts
2026-04-18 23:48 55.94119 -3.34324 708 ft 89 kts 62°
2026-04-18 23:48 55.94368 -3.33312 660 ft 89 kts 66°
2026-04-18 23:49 55.94628 -3.32305 586 ft 89 kts 64°
2026-04-18 23:49 55.94935 -3.31413 541 ft 83 kts 27°
2026-04-18 23:49 55.95454 -3.31612 506 ft 75 kts 328°
2026-04-18 23:49 55.95870 -3.32087 568 ft 69 kts 316°
2026-04-18 23:50 55.96232 -3.32603 588 ft 60 kts 314°
2026-04-18 23:50 55.96303 -3.33216 546 ft 55 kts 256°
2026-04-18 23:50 55.96140 -3.33884 405 ft 60 kts 241°
2026-04-18 23:50 55.95922 -3.34511 310 ft 59 kts 240°
2026-04-18 23:51 55.95711 -3.35136 224 ft 58 kts 239°
2026-04-18 23:51 55.95504 -3.35762 135 ft 58 kts 240°
2026-04-18 23:51 55.95308 -3.36336 105 ft 45 kts 239°
2026-04-18 23:51 55.95121 -3.36865 150 ft 64 kts 234°
2026-04-18 23:52 55.94843 -3.37585 333 ft 76 kts 235°
2026-04-18 23:52 55.94533 -3.38366 568 ft 80 kts 236°
2026-04-18 23:52 55.94176 -3.39220 730 ft 92 kts 236°
2026-04-18 23:52 55.93895 -3.40241 941 ft 93 kts 271°
2026-04-18 23:53 55.94233 -3.41262 1022 ft 107 kts 316°
2026-04-18 23:53 55.94899 -3.41892 965 ft 110 kts 336°
2026-04-18 23:53 55.95648 -3.42186 921 ft 111 kts 359°
2026-04-18 23:53 55.96236 -3.41411 965 ft 109 kts 57°
2026-04-18 23:54 55.96560 -3.40139 866 ft 112 kts 65°
2026-04-18 23:54 55.96846 -3.38872 851 ft 109 kts 66°
2026-04-18 23:54 55.97127 -3.37659 852 ft 107 kts 66°
2026-04-18 23:54 55.97439 -3.36431 847 ft 106 kts 64°
2026-04-18 23:55 55.97733 -3.35252 848 ft 106 kts 66°
2026-04-18 23:55 55.97923 -3.34049 822 ft 98 kts 103°
2026-04-18 23:55 55.97533 -3.33160 766 ft 90 kts 150°
2026-04-18 23:55 55.97035 -3.32563 648 ft 85 kts 154°
2026-04-18 23:56 55.96545 -3.32362 603 ft 65 kts 223°
2026-04-18 23:56 55.96347 -3.33146 499 ft 75 kts 250°
2026-04-18 23:56 55.96107 -3.33995 393 ft 78 kts 244°
2026-04-18 23:56 55.95831 -3.34807 282 ft 72 kts 241°
2026-04-18 23:57 55.95581 -3.35536 172 ft 66 kts 240°
2026-04-18 23:57 55.95351 -3.36211 108 ft 58 kts 240°
2026-04-18 23:57 55.95162 -3.36775 116 ft 64 kts 238°
2026-04-18 23:57 55.94889 -3.37549 271 ft 80 kts 238°
2026-04-18 23:58 55.94576 -3.38403 494 ft 83 kts 238°
2026-04-18 23:58 55.94241 -3.39257 736 ft 85 kts 236°
2026-04-18 23:58 55.94035 -3.40238 953 ft 90 kts 277°
2026-04-18 23:58 55.94503 -3.41067 1027 ft 109 kts 336°
2026-04-18 23:59 55.95184 -3.41429 994 ft 97 kts 345°
2026-04-18 23:59 55.95784 -3.40945 895 ft 100 kts 48°
2026-04-18 23:59 55.96140 -3.39875 801 ft 97 kts 56°
2026-04-18 23:59 55.96502 -3.38859 721 ft 94 kts 53°
2026-04-19 00:00 55.96844 -3.37953 725 ft 89 kts 53°
2026-04-19 00:00 55.97195 -3.37029 759 ft 90 kts 54°
2026-04-19 00:00 55.97539 -3.36085 801 ft 90 kts 56°
2026-04-19 00:00 55.97990 -3.36020 692 ft 75 kts 289°
2026-04-19 00:01 55.97644 -3.36228 592 ft 88 kts 129°
2026-04-19 00:01 55.97883 -3.35440 590 ft 81 kts 350°
2026-04-19 00:01 55.97994 -3.36056 610 ft 68 kts 210°
2026-04-19 00:01 55.97647 -3.35604 636 ft 82 kts 83°
2026-04-19 00:02 55.97995 -3.34885 668 ft 79 kts
2026-04-19 00:02 55.98398 -3.35226 703 ft 63 kts 275°
2026-04-19 00:02 55.98042 -3.35279 658 ft 86 kts 130°
2026-04-19 00:02 55.98034 -3.34244 713 ft 89 kts 75°
2026-04-19 00:03 55.98251 -3.33197 758 ft 90 kts 63°
2026-04-19 00:03 55.98546 -3.32193 832 ft 91 kts 57°
2026-04-19 00:03 55.98879 -3.31227 857 ft 89 kts 57°
2026-04-19 00:03 55.99159 -3.30266 927 ft 85 kts 62°
2026-04-19 00:04 55.99397 -3.29314 980 ft 83 kts 61°
2026-04-19 00:04 55.99550 -3.28302 996 ft 91 kts 100°
2026-04-19 00:04 55.99202 -3.27448 1032 ft 85 kts 149°
2026-04-19 00:04 55.98687 -3.26987 1016 ft 82 kts 189°
2026-04-19 00:05 55.98271 -3.27483 1009 ft 74 kts 242°
2026-04-19 00:05 55.98014 -3.28251 960 ft 71 kts 243°
2026-04-19 00:05 55.97745 -3.28972 927 ft 69 kts 236°
2026-04-19 00:05 55.97530 -3.29730 822 ft 68 kts 243°
2026-04-19 00:06 55.97293 -3.30442 785 ft 67 kts 240°
2026-04-19 00:06 55.97052 -3.31163 746 ft 68 kts 240°
2026-04-19 00:06 55.96805 -3.31892 626 ft 68 kts 238°
2026-04-19 00:06 55.96567 -3.32602 524 ft 67 kts 238°
2026-04-19 00:07 55.96331 -3.33321 454 ft 68 kts 239°
2026-04-19 00:07 55.96090 -3.34050 360 ft 69 kts 240°
2026-04-19 00:07 55.95839 -3.34769 307 ft 67 kts 237°
2026-04-19 00:07 55.95596 -3.35491 196 ft 68 kts 238°
2026-04-19 00:08 55.95355 -3.36201 120 ft 65 kts 239°
2026-04-19 00:08 55.95153 -3.36789 116 ft 46 kts 243°
2026-04-19 00:08 55.94971 -3.37329 132 ft 65 kts 237°
2026-04-19 00:08 55.94704 -3.38033 367 ft 71 kts 234°
2026-04-19 00:09 55.94413 -3.38750 632 ft 72 kts 243°
2026-04-19 00:09 55.94386 -3.39640 913 ft 72 kts 282°
2026-04-19 00:09 55.94653 -3.40403 1186 ft 75 kts 310°
2026-04-19 00:09 55.95143 -3.40713 1466 ft 83 kts 353°
2026-04-19 00:10 55.95753 -3.40454 1655 ft 95 kts
2026-04-19 00:10 55.96371 -3.40187 1832 ft 92 kts
2026-04-19 00:10 55.97000 -3.39960 1923 ft 92 kts
2026-04-19 00:10 55.97632 -3.39778 1961 ft 91 kts 359°
2026-04-19 00:11 55.98250 -3.39684 2032 ft 87 kts 352°
2026-04-19 00:11 55.98858 -3.39670 2104 ft 89 kts 354°
2026-04-19 00:11 55.99500 -3.39614 2010 ft 95 kts 357°
2026-04-19 00:11 56.00160 -3.39549 1889 ft 95 kts 352°
2026-04-19 00:12 56.00809 -3.39658 1788 ft 93 kts 346°
2026-04-19 00:12 56.01458 -3.39870 1707 ft 96 kts 343°
2026-04-19 00:12 56.02108 -3.39972 1637 ft 95 kts 349°
2026-04-19 00:12 56.02536 -3.40165 1549 ft 95 kts 332°
2026-04-19 00:13 56.03099 -3.40716 1514 ft 92 kts 327°
2026-04-19 00:13 56.03666 -3.41247 1478 ft 91 kts 325°
2026-04-19 00:13 56.04200 -3.41857 1412 ft 92 kts 324°
2026-04-19 00:13 56.04729 -3.42470 1345 ft 90 kts 322°
2026-04-19 00:14 56.05351 -3.42635 1295 ft 99 kts
2026-04-19 00:14 56.05920 -3.41928 1258 ft 103 kts 37°
2026-04-19 00:14 56.06437 -3.41061 1269 ft 102 kts 38°
2026-04-19 00:14 56.06932 -3.40131 1182 ft 106 kts 45°
2026-04-19 00:15 56.07420 -3.39210 1239 ft 98 kts 40°
2026-04-19 00:15 56.07928 -3.38361 1305 ft 102 kts 37°
2026-04-19 00:15 56.08436 -3.37442 1399 ft 109 kts 43°
2026-04-19 00:15 56.08892 -3.36415 1533 ft 107 kts 50°
2026-04-19 00:16 56.09321 -3.35356 1688 ft 103 kts 47°
2026-04-19 00:16 56.09754 -3.34316 1722 ft 106 kts 46°
2026-04-19 00:16 56.10158 -3.33279 1819 ft 99 kts 52°
2026-04-19 00:16 56.10462 -3.32128 1795 ft 106 kts 70°
2026-04-19 00:17 56.10683 -3.30899 1791 ft 104 kts 62°
2026-04-19 00:17 56.11009 -3.29763 1727 ft 99 kts 54°
2026-04-19 00:17 56.11395 -3.28781 1695 ft 96 kts 46°
2026-04-19 00:17 56.11815 -3.27889 1613 ft 91 kts 39°
2026-04-19 00:18 56.12253 -3.27132 1573 ft 87 kts 38°
2026-04-19 00:18 56.12650 -3.26372 1538 ft 84 kts 38°
2026-04-19 00:18 56.13060 -3.25613 1612 ft 85 kts 36°
2026-04-19 00:18 56.13492 -3.24857 1693 ft 87 kts 34°
2026-04-19 00:19 56.13910 -3.24104 1785 ft 86 kts 37°
2026-04-19 00:19 56.14224 -3.23147 1802 ft 88 kts 55°
2026-04-19 00:19 56.14412 -3.22052 1708 ft 101 kts 85°
2026-04-19 00:19 56.14511 -3.20917 1733 ft 92 kts 65°
2026-04-19 00:20 56.14760 -3.19872 1625 ft 90 kts 58°
2026-04-19 00:20 56.15000 -3.18833 1612 ft 87 kts 59°
2026-04-19 00:20 56.15294 -3.17880 1530 ft 87 kts 47°
2026-04-19 00:20 56.15728 -3.17187 1559 ft 84 kts 22°
2026-04-19 00:21 56.16232 -3.16864 1583 ft 76 kts
2026-04-19 00:21 56.16758 -3.16874 1454 ft 74 kts 339°
2026-04-19 00:21 56.17228 -3.17132 1360 ft 70 kts 333°
2026-04-19 00:21 56.17678 -3.17478 1305 ft 71 kts 328°
2026-04-19 00:22 56.18128 -3.17811 1309 ft 70 kts 332°
2026-04-19 00:22 56.18597 -3.18196 1206 ft 72 kts 327°
2026-04-19 00:22 56.19000 -3.18673 1072 ft 67 kts 313°
2026-04-19 00:22 56.19086 -3.19358 833 ft 61 kts 251°
2026-04-19 00:23 56.18915 -3.20052 694 ft 64 kts 241°
2026-04-19 00:23 56.18722 -3.20768 571 ft 63 kts 244°
2026-04-19 00:23 56.18499 -3.21468 418 ft 63 kts 245°
2026-04-19 00:23 56.18322 -3.22051 402 ft 29 kts 240°
2026-04-19 00:24 56.18265 -3.22087 400 ft 10 kts 147°
2026-04-19 00:24 56.18258 -3.22101 400 ft 0 kts 19°